createdAt,value
2022-12-26T00:01:28.911Z,100637.00
2022-12-26T00:03:56.991Z,100631.00
2022-12-26T00:06:28.662Z,100632.00
2022-12-26T00:08:58.891Z,100628.00
2022-12-26T00:11:27.660Z,100625.00
2022-12-26T00:14:02.333Z,100633.00
2022-12-26T00:16:30.246Z,100634.00
2022-12-26T00:19:01.452Z,100625.00
2022-12-26T00:21:29.419Z,100628.00
2022-12-26T00:23:59.098Z,100621.00
2022-12-26T00:26:31.647Z,100623.00
2022-12-26T00:28:59.471Z,100627.00
2022-12-26T00:31:32.189Z,100635.00
2022-12-26T00:34:00.610Z,100637.00
2022-12-26T00:36:35.741Z,100648.00
2022-12-26T00:39:04.537Z,100650.00
2022-12-26T00:41:32.224Z,100651.00
2022-12-26T00:43:59.776Z,100649.00
2022-12-26T00:46:27.890Z,100671.00
2022-12-26T00:48:55.228Z,100671.00
2022-12-26T00:51:24.948Z,100673.00
2022-12-26T00:53:52.195Z,100672.00
2022-12-26T00:56:19.530Z,100662.00
2022-12-26T00:58:46.596Z,100664.00
2022-12-26T01:01:21.739Z,100676.00
2022-12-26T01:03:50.767Z,100679.00
2022-12-26T01:06:18.940Z,100677.00
2022-12-26T01:08:46.195Z,100670.00
2022-12-26T01:11:16.387Z,100674.00
2022-12-26T01:13:44.044Z,100666.00
2022-12-26T01:16:11.464Z,100658.00
2022-12-26T01:18:38.678Z,100667.00
2022-12-26T01:21:10.352Z,100675.00
2022-12-26T01:23:37.544Z,100684.00
2022-12-26T01:26:17.938Z,100692.00
2022-12-26T01:28:52.587Z,100695.00
2022-12-26T01:31:22.033Z,100688.00
2022-12-26T01:33:50.347Z,100702.00
2022-12-26T01:36:19.087Z,100693.00
2022-12-26T01:38:46.923Z,100700.00
2022-12-26T01:41:19.635Z,100691.00
2022-12-26T01:43:59.827Z,100695.00
2022-12-26T01:46:42.357Z,100705.00
2022-12-26T01:49:37.005Z,100694.00
2022-12-26T01:52:12.840Z,100684.00
2022-12-26T01:54:47.143Z,100701.00
2022-12-26T01:57:35.078Z,100697.00
2022-12-26T02:00:04.506Z,100707.00
2022-12-26T02:02:52.479Z,100687.00
2022-12-26T02:05:35.390Z,100709.00
2022-12-26T02:08:27.990Z,100716.00
2022-12-26T02:11:06.334Z,100720.00
2022-12-26T02:13:39.300Z,100725.00
2022-12-26T02:16:11.058Z,100727.00
2022-12-26T02:18:38.348Z,100714.00
2022-12-26T02:21:43.570Z,100735.00
2022-12-26T02:24:28.791Z,100726.00
2022-12-26T02:27:16.241Z,100733.00
2022-12-26T02:30:07.512Z,100736.00
2022-12-26T02:33:11.401Z,100756.00
2022-12-26T02:36:18.347Z,100737.00
2022-12-26T02:39:44.297Z,100726.00
2022-12-26T02:42:34.176Z,100742.00
2022-12-26T02:45:58.455Z,100743.00
2022-12-26T02:48:52.514Z,100753.00
2022-12-26T02:51:47.106Z,100765.00
2022-12-26T02:55:00.053Z,100763.00
2022-12-26T02:58:43.017Z,100769.00
2022-12-26T03:02:05.989Z,100766.00
2022-12-26T03:04:57.228Z,100759.00
2022-12-26T03:07:57.516Z,100755.00
2022-12-26T03:10:49.443Z,100758.00
2022-12-26T03:13:30.390Z,100756.00
2022-12-26T03:16:30.889Z,100746.00
2022-12-26T03:19:06.268Z,100728.00
2022-12-26T03:21:45.975Z,100736.00
2022-12-26T03:24:17.173Z,100741.00
2022-12-26T03:26:53.925Z,100753.00
2022-12-26T03:29:42.784Z,100758.00
2022-12-26T03:32:12.758Z,100768.00
2022-12-26T03:34:45.430Z,100764.00
2022-12-26T03:37:48.478Z,100761.00
2022-12-26T03:41:22.380Z,100752.00
2022-12-26T03:44:54.917Z,100734.00
2022-12-26T03:47:54.176Z,100740.00
2022-12-26T03:51:05.011Z,100745.00
2022-12-26T03:54:12.995Z,100751.00
2022-12-26T03:57:08.797Z,100756.00
2022-12-26T04:00:16.848Z,100755.00
2022-12-26T04:03:06.010Z,100748.00
2022-12-26T04:05:56.863Z,100741.00
2022-12-26T04:08:59.281Z,100758.00
2022-12-26T04:11:45.547Z,100770.00
2022-12-26T04:14:50.372Z,100780.00
2022-12-26T04:18:03.063Z,100788.00
2022-12-26T04:21:39.722Z,100773.00
2022-12-26T04:24:37.646Z,100777.00
2022-12-26T04:27:28.821Z,100773.00
2022-12-26T04:30:15.241Z,100769.00
2022-12-26T04:33:09.030Z,100777.00
2022-12-26T04:36:26.509Z,100773.00
2022-12-26T04:39:23.645Z,100762.00
2022-12-26T04:42:12.165Z,100767.00
2022-12-26T04:44:41.014Z,100769.00
2022-12-26T04:47:08.840Z,100776.00
2022-12-26T04:50:03.767Z,100781.00
2022-12-26T04:52:50.174Z,100774.00
2022-12-26T04:55:18.805Z,100779.00
2022-12-26T04:57:46.264Z,100772.00
2022-12-26T05:00:14.420Z,100773.00
2022-12-26T05:03:00.432Z,100786.00
2022-12-26T05:05:46.509Z,100770.00
2022-12-26T05:09:05.346Z,100770.00
2022-12-26T05:11:35.564Z,100781.00
2022-12-26T05:14:02.846Z,100759.00
2022-12-26T05:16:48.882Z,100785.00
2022-12-26T05:19:36.606Z,100792.00
2022-12-26T05:22:23.621Z,100789.00
2022-12-26T05:25:10.702Z,100798.00
2022-12-26T05:28:02.286Z,100794.00
2022-12-26T05:30:30.126Z,100794.00
2022-12-26T05:33:15.884Z,100781.00
2022-12-26T05:35:43.273Z,100774.00
2022-12-26T05:38:11.641Z,100767.00
2022-12-26T05:40:38.903Z,100778.00
2022-12-26T05:43:06.252Z,100774.00
2022-12-26T05:45:33.361Z,100769.00
2022-12-26T05:48:01.530Z,100758.00
2022-12-26T05:50:29.598Z,100762.00
2022-12-26T05:53:00.833Z,100767.00
2022-12-26T05:55:27.934Z,100761.00
2022-12-26T05:57:55.124Z,100761.00
2022-12-26T06:00:23.300Z,100746.00
2022-12-26T06:02:50.837Z,100745.00
2022-12-26T06:05:18.193Z,100762.00
2022-12-26T06:07:45.644Z,100765.00
2022-12-26T06:10:13.457Z,100769.00
2022-12-26T06:12:40.750Z,100768.00
2022-12-26T06:15:08.588Z,100762.00
2022-12-26T06:17:36.323Z,100769.00
2022-12-26T06:20:03.986Z,100772.00
2022-12-26T06:22:31.566Z,100774.00
2022-12-26T06:24:58.819Z,100774.00
2022-12-26T06:27:26.159Z,100775.00
2022-12-26T06:29:53.427Z,100796.00
2022-12-26T06:32:20.814Z,100790.00
2022-12-26T06:34:48.743Z,100787.00
2022-12-26T06:37:16.412Z,100782.00
2022-12-26T06:39:43.706Z,100793.00
2022-12-26T06:42:10.848Z,100793.00
2022-12-26T06:44:38.404Z,100794.00
2022-12-26T06:47:05.702Z,100796.00
2022-12-26T06:49:33.492Z,100789.00
2022-12-26T06:52:00.775Z,100793.00
2022-12-26T06:54:27.989Z,100802.00
2022-12-26T06:56:55.241Z,100800.00
2022-12-26T06:59:22.598Z,100820.00
2022-12-26T07:01:49.933Z,100835.00
2022-12-26T07:04:17.523Z,100826.00
2022-12-26T07:06:44.747Z,100833.00
2022-12-26T07:09:17.118Z,100828.00
2022-12-26T07:11:49.562Z,100823.00
2022-12-26T07:14:17.700Z,100827.00
2022-12-26T07:16:46.048Z,100812.00
2022-12-26T07:19:15.050Z,100821.00
2022-12-26T07:21:43.093Z,100835.00
2022-12-26T07:24:20.459Z,100844.00
2022-12-26T07:26:49.027Z,100847.00
2022-12-26T07:29:16.698Z,100853.00
2022-12-26T07:31:43.985Z,100853.00
2022-12-26T07:34:11.307Z,100853.00
2022-12-26T07:36:38.495Z,100850.00
2022-12-26T07:39:05.831Z,100846.00
2022-12-26T07:41:54.223Z,100837.00
2022-12-26T07:44:21.448Z,100856.00
2022-12-26T07:46:48.818Z,100857.00
2022-12-26T07:49:16.263Z,100844.00
2022-12-26T07:51:43.788Z,100832.00
2022-12-26T07:54:12.054Z,100843.00
2022-12-26T07:56:40.345Z,100844.00
2022-12-26T07:59:12.293Z,100838.00
2022-12-26T08:01:39.570Z,100822.00
2022-12-26T08:04:07.303Z,100832.00
2022-12-26T08:06:34.662Z,100838.00
2022-12-26T08:09:02.157Z,100849.00
2022-12-26T08:11:35.470Z,100859.00
2022-12-26T08:14:03.321Z,100854.00
2022-12-26T08:16:35.792Z,100858.00
2022-12-26T08:19:07.105Z,100865.00
2022-12-26T08:21:35.063Z,100864.00
2022-12-26T08:24:02.282Z,100864.00
2022-12-26T08:26:29.953Z,100875.00
2022-12-26T08:28:58.106Z,100872.00
2022-12-26T08:33:57.338Z,100853.00
2022-12-26T08:36:25.107Z,100854.00
2022-12-26T08:38:52.431Z,100859.00
2022-12-26T08:41:20.263Z,100857.00
2022-12-26T08:46:40.283Z,100871.00
2022-12-26T08:49:07.692Z,100875.00
2022-12-26T08:51:34.977Z,100860.00
2022-12-26T08:54:04.392Z,100877.00
2022-12-26T08:56:32.030Z,100875.00
2022-12-26T08:58:59.203Z,100888.00
2022-12-26T09:01:30.080Z,100892.00
2022-12-26T09:04:01.221Z,100887.00
2022-12-26T09:06:33.067Z,100893.00
2022-12-26T09:09:01.277Z,100901.00
2022-12-26T09:11:29.672Z,100893.00
2022-12-26T09:14:00.258Z,100885.00
2022-12-26T09:16:43.016Z,100897.00
2022-12-26T09:19:17.949Z,100898.00
2022-12-26T09:21:45.800Z,100907.00
2022-12-26T09:24:18.372Z,100905.00
2022-12-26T09:26:45.677Z,100909.00
2022-12-26T09:29:14.181Z,100896.00
2022-12-26T09:31:41.749Z,100905.00
2022-12-26T09:34:09.362Z,100905.00
2022-12-26T09:36:39.022Z,100916.00
2022-12-26T09:39:07.500Z,100914.00
2022-12-26T09:42:13.385Z,100923.00
2022-12-26T09:45:11.983Z,100919.00
2022-12-26T09:48:12.216Z,100912.00
2022-12-26T09:50:43.203Z,100917.00
2022-12-26T09:53:36.961Z,100930.00
2022-12-26T09:56:37.073Z,100931.00
2022-12-26T09:59:13.559Z,100939.00
2022-12-26T10:01:41.147Z,100945.00
2022-12-26T10:04:30.880Z,100937.00
2022-12-26T10:07:38.218Z,100938.00
2022-12-26T10:10:34.066Z,100933.00
2022-12-26T10:13:24.550Z,100944.00
2022-12-26T10:16:11.634Z,100940.00
2022-12-26T10:19:02.785Z,100930.00
2022-12-26T10:21:54.351Z,100952.00
2022-12-26T10:24:27.454Z,100945.00
2022-12-26T10:27:03.126Z,100948.00
2022-12-26T10:29:43.434Z,100940.00
2022-12-26T10:32:33.721Z,100936.00
2022-12-26T10:35:11.321Z,100951.00
2022-12-26T10:37:42.356Z,100946.00
2022-12-26T10:40:12.534Z,100937.00
2022-12-26T10:42:44.399Z,100951.00
2022-12-26T10:45:23.102Z,100950.00
2022-12-26T10:47:52.495Z,100945.00
2022-12-26T10:50:27.725Z,100961.00
2022-12-26T10:52:57.351Z,100949.00
2022-12-26T10:55:34.518Z,100934.00
2022-12-26T10:58:28.746Z,100945.00
2022-12-26T11:00:55.913Z,100956.00
2022-12-26T11:03:23.298Z,100960.00
2022-12-26T11:06:12.397Z,100960.00
2022-12-26T11:08:49.720Z,100967.00
2022-12-26T11:11:47.916Z,100986.00
2022-12-26T11:14:45.236Z,100967.00
2022-12-26T11:17:30.655Z,100971.00
2022-12-26T11:20:28.109Z,100951.00
2022-12-26T11:22:55.748Z,100953.00
2022-12-26T11:25:27.898Z,100962.00
2022-12-26T11:27:58.978Z,100962.00
2022-12-26T11:30:31.927Z,100967.00
2022-12-26T11:33:14.159Z,100969.00
2022-12-26T11:36:05.792Z,100966.00
2022-12-26T11:38:45.904Z,100965.00
2022-12-26T11:41:33.899Z,100958.00
2022-12-26T11:44:24.383Z,100963.00
2022-12-26T11:47:01.603Z,100954.00
2022-12-26T11:50:08.123Z,100978.00
2022-12-26T11:52:52.025Z,100995.00
2022-12-26T11:55:33.747Z,101020.00
2022-12-26T11:58:10.057Z,101020.00
2022-12-26T12:01:17.395Z,101035.00
2022-12-26T12:03:50.418Z,101034.00
2022-12-26T12:07:08.206Z,101038.00
2022-12-26T12:10:04.747Z,101044.00
2022-12-26T12:13:00.253Z,101046.00
2022-12-26T12:15:52.132Z,101051.00
2022-12-26T12:18:51.951Z,101056.00
2022-12-26T12:21:40.142Z,101066.00
2022-12-26T12:24:30.208Z,101061.00
2022-12-26T12:27:48.250Z,101067.00
2022-12-26T12:30:28.611Z,101055.00
2022-12-26T12:33:24.704Z,101063.00
2022-12-26T12:36:38.680Z,101058.00
2022-12-26T12:39:19.791Z,101065.00
2022-12-26T12:42:08.225Z,101059.00
2022-12-26T12:45:28.488Z,101062.00
2022-12-26T12:48:31.782Z,101054.00
2022-12-26T12:51:26.692Z,101075.00
2022-12-26T12:54:19.739Z,101060.00
2022-12-26T12:57:27.418Z,101062.00
2022-12-26T13:00:19.780Z,101069.00
2022-12-26T13:03:10.610Z,101064.00
2022-12-26T13:05:46.343Z,101074.00
2022-12-26T13:08:25.383Z,101080.00
2022-12-26T13:11:13.848Z,101073.00
2022-12-26T13:13:54.453Z,101086.00
2022-12-26T13:17:01.213Z,101099.00
2022-12-26T13:20:05.891Z,101100.00
2022-12-26T13:23:04.555Z,101117.00
2022-12-26T13:26:01.510Z,101116.00
2022-12-26T13:28:40.215Z,101105.00
2022-12-26T13:31:07.720Z,101126.00
2022-12-26T13:33:35.561Z,101124.00
2022-12-26T13:36:06.925Z,101120.00
2022-12-26T13:38:59.253Z,101132.00
2022-12-26T13:41:46.534Z,101129.00
2022-12-26T13:44:20.118Z,101118.00
2022-12-26T13:46:47.280Z,101109.00
2022-12-26T13:49:46.886Z,101125.00
2022-12-26T13:52:19.854Z,101133.00
2022-12-26T13:54:50.656Z,101138.00
2022-12-26T13:57:45.053Z,101153.00
2022-12-26T14:00:45.725Z,101157.00
2022-12-26T14:03:45.831Z,101164.00
2022-12-26T14:06:40.552Z,101166.00
2022-12-26T14:09:29.281Z,101165.00
2022-12-26T14:12:41.802Z,101166.00
2022-12-26T14:16:05.377Z,101172.00
2022-12-26T14:18:57.552Z,101190.00
2022-12-26T14:21:51.223Z,101196.00
2022-12-26T14:24:42.512Z,101189.00
2022-12-26T14:27:59.643Z,101209.00
2022-12-26T14:30:57.305Z,101209.00
2022-12-26T14:33:27.465Z,101222.00
2022-12-26T14:35:54.828Z,101208.00
2022-12-26T14:38:40.168Z,101236.00
2022-12-26T14:41:33.303Z,101226.00
2022-12-26T14:44:22.383Z,101242.00
2022-12-26T14:46:49.657Z,101244.00
2022-12-26T14:49:28.084Z,101254.00
2022-12-26T14:52:23.509Z,101256.00
2022-12-26T14:54:55.988Z,101251.00
2022-12-26T14:57:48.036Z,101249.00
2022-12-26T15:00:21.414Z,101253.00
2022-12-26T15:03:36.107Z,101272.00
2022-12-26T15:06:21.792Z,101272.00
2022-12-26T15:09:28.151Z,101274.00
2022-12-26T15:12:59.225Z,101283.00
2022-12-26T15:16:04.442Z,101283.00
2022-12-26T15:18:59.006Z,101297.00
2022-12-26T15:22:12.396Z,101306.00
2022-12-26T15:25:25.759Z,101325.00
2022-12-26T15:28:17.482Z,101320.00
2022-12-26T15:31:36.465Z,101337.00
2022-12-26T15:35:00.520Z,101356.00
2022-12-26T15:37:45.710Z,101356.00
2022-12-26T15:40:33.080Z,101361.00
2022-12-26T15:43:18.528Z,101366.00
2022-12-26T15:45:48.446Z,101368.00
2022-12-26T15:48:40.529Z,101377.00
2022-12-26T15:51:24.140Z,101370.00
2022-12-26T15:54:05.083Z,101375.00
2022-12-26T15:57:02.377Z,101380.00
2022-12-26T16:00:15.932Z,101392.00
2022-12-26T16:03:24.510Z,101398.00
2022-12-26T16:06:32.821Z,101398.00
2022-12-26T16:10:00.599Z,101410.00
2022-12-26T16:12:34.266Z,101406.00
2022-12-26T16:15:10.572Z,101427.00
2022-12-26T16:17:40.153Z,101433.00
2022-12-26T16:20:59.371Z,101429.00
2022-12-26T16:23:37.133Z,101446.00
2022-12-26T16:26:04.890Z,101447.00
2022-12-26T16:28:41.334Z,101440.00
2022-12-26T16:31:10.295Z,101449.00
2022-12-26T16:33:48.596Z,101456.00
2022-12-26T16:36:24.570Z,101462.00
2022-12-26T16:38:54.292Z,101462.00
2022-12-26T16:42:28.506Z,101457.00
2022-12-26T16:45:00.264Z,101466.00
2022-12-26T16:47:31.535Z,101472.00
2022-12-26T16:50:00.272Z,101466.00
2022-12-26T16:52:46.018Z,101476.00
2022-12-26T16:55:31.986Z,101481.00
2022-12-26T16:58:04.971Z,101486.00
2022-12-26T17:00:33.034Z,101490.00
2022-12-26T17:03:03.302Z,101499.00
2022-12-26T17:05:36.287Z,101500.00
2022-12-26T17:08:05.536Z,101506.00
2022-12-26T17:10:37.521Z,101500.00
2022-12-26T17:13:09.783Z,101510.00
2022-12-26T17:15:48.045Z,101509.00
2022-12-26T17:18:35.987Z,101508.00
2022-12-26T17:21:25.700Z,101511.00
2022-12-26T17:24:12.265Z,101520.00
2022-12-26T17:26:42.991Z,101518.00
2022-12-26T17:29:45.574Z,101517.00
2022-12-26T17:32:21.360Z,101498.00
2022-12-26T17:34:48.897Z,101512.00
2022-12-26T17:37:25.143Z,101514.00
2022-12-26T17:40:13.476Z,101524.00
2022-12-26T17:43:07.910Z,101533.00
2022-12-26T17:45:42.791Z,101522.00
2022-12-26T17:48:13.568Z,101533.00
2022-12-26T17:50:44.930Z,101536.00
2022-12-26T17:53:31.619Z,101545.00
2022-12-26T17:56:03.288Z,101550.00
2022-12-26T17:58:31.713Z,101537.00
2022-12-26T18:00:59.492Z,101554.00
2022-12-26T18:03:28.629Z,101549.00
2022-12-26T18:05:56.655Z,101541.00
2022-12-26T18:08:40.028Z,101553.00
2022-12-26T18:11:10.783Z,101555.00
2022-12-26T18:13:38.567Z,101565.00
2022-12-26T18:16:07.217Z,101567.00
2022-12-26T18:18:44.213Z,101576.00
2022-12-26T18:21:15.825Z,101586.00
2022-12-26T18:23:43.321Z,101578.00
2022-12-26T18:26:27.842Z,101593.00
2022-12-26T18:28:55.646Z,101592.00
2022-12-26T18:31:23.059Z,101601.00
2022-12-26T18:33:52.277Z,101614.00
2022-12-26T18:36:22.546Z,101621.00
2022-12-26T18:38:52.860Z,101613.00
2022-12-26T18:41:20.895Z,101615.00
2022-12-26T18:43:48.661Z,101617.00
2022-12-26T18:46:26.105Z,101633.00
2022-12-26T18:48:56.844Z,101633.00
2022-12-26T18:51:27.945Z,101640.00
2022-12-26T18:53:55.535Z,101647.00
2022-12-26T18:56:23.757Z,101642.00
2022-12-26T18:58:57.616Z,101636.00
2022-12-26T19:01:26.410Z,101646.00
2022-12-26T19:03:54.284Z,101666.00
2022-12-26T19:06:29.345Z,101654.00
2022-12-26T19:08:57.387Z,101673.00
2022-12-26T19:11:24.983Z,101674.00
2022-12-26T19:13:52.747Z,101657.00
2022-12-26T19:16:20.379Z,101686.00
2022-12-26T19:18:47.648Z,101693.00
2022-12-26T19:21:16.529Z,101682.00
2022-12-26T19:23:47.823Z,101689.00
2022-12-26T19:26:18.366Z,101697.00
2022-12-26T19:28:45.919Z,101703.00
2022-12-26T19:31:15.049Z,101700.00
2022-12-26T19:33:45.583Z,101708.00
2022-12-26T19:36:12.908Z,101703.00
2022-12-26T19:38:40.267Z,101706.00
2022-12-26T19:41:11.235Z,101703.00
2022-12-26T19:43:38.881Z,101703.00
2022-12-26T19:46:11.395Z,101717.00
2022-12-26T19:48:39.890Z,101722.00
2022-12-26T19:51:14.435Z,101721.00
2022-12-26T19:53:45.051Z,101725.00
2022-12-26T19:56:27.001Z,101726.00
2022-12-26T19:58:56.862Z,101727.00
2022-12-26T20:01:29.209Z,101735.00
2022-12-26T20:04:03.648Z,101730.00
2022-12-26T20:06:35.062Z,101729.00
2022-12-26T20:09:11.307Z,101728.00
2022-12-26T20:11:52.349Z,101730.00
2022-12-26T20:14:26.098Z,101727.00
2022-12-26T20:17:08.038Z,101712.00
2022-12-26T20:19:37.099Z,101734.00
2022-12-26T20:22:08.132Z,101711.00
2022-12-26T20:24:37.589Z,101721.00
2022-12-26T20:27:05.253Z,101722.00
2022-12-26T20:29:33.129Z,101724.00
2022-12-26T20:32:00.458Z,101730.00
2022-12-26T20:34:27.722Z,101732.00
2022-12-26T20:36:54.975Z,101724.00
2022-12-26T20:39:25.286Z,101737.00
2022-12-26T20:41:53.160Z,101738.00
2022-12-26T20:44:20.584Z,101745.00
2022-12-26T20:46:47.964Z,101741.00
2022-12-26T20:49:15.642Z,101736.00
2022-12-26T20:51:48.779Z,101753.00
2022-12-26T20:54:16.917Z,101766.00
2022-12-26T20:56:47.697Z,101756.00
2022-12-26T20:59:14.804Z,101770.00
2022-12-26T21:01:42.852Z,101766.00
2022-12-26T21:04:24.639Z,101753.00
2022-12-26T21:06:52.163Z,101765.00
2022-12-26T21:09:19.533Z,101752.00
2022-12-26T21:11:49.686Z,101757.00
2022-12-26T21:14:22.741Z,101762.00
2022-12-26T21:16:56.913Z,101771.00
2022-12-26T21:19:27.424Z,101781.00
2022-12-26T21:22:32.439Z,101782.00
2022-12-26T21:24:59.651Z,101783.00
2022-12-26T21:27:26.915Z,101785.00
2022-12-26T21:29:54.366Z,101788.00
2022-12-26T21:32:23.846Z,101785.00
2022-12-26T21:34:51.175Z,101793.00
2022-12-26T21:37:37.011Z,101794.00
2022-12-26T21:40:06.337Z,101803.00
2022-12-26T21:42:39.951Z,101792.00
2022-12-26T21:45:11.239Z,101793.00
2022-12-26T21:47:38.402Z,101804.00
2022-12-26T21:50:06.655Z,101807.00
2022-12-26T21:52:33.840Z,101813.00
2022-12-26T21:55:20.972Z,101801.00
2022-12-26T21:57:48.317Z,101811.00
2022-12-26T22:00:16.398Z,101814.00
2022-12-26T22:03:02.159Z,101811.00
2022-12-26T22:05:34.445Z,101807.00
2022-12-26T22:08:03.855Z,101821.00
2022-12-26T22:10:54.184Z,101821.00
2022-12-26T22:13:24.553Z,101824.00
2022-12-26T22:16:04.228Z,101819.00
2022-12-26T22:18:47.384Z,101822.00
2022-12-26T22:21:18.269Z,101824.00
2022-12-26T22:23:46.640Z,101829.00
2022-12-26T22:26:15.585Z,101842.00
2022-12-26T22:28:46.800Z,101836.00
2022-12-26T22:31:32.663Z,101834.00
2022-12-26T22:34:08.451Z,101842.00
2022-12-26T22:36:36.351Z,101848.00
2022-12-26T22:39:04.481Z,101846.00
2022-12-26T22:41:33.118Z,101848.00
2022-12-26T22:44:00.264Z,101841.00
2022-12-26T22:46:27.491Z,101846.00
2022-12-26T22:48:54.773Z,101837.00
2022-12-26T22:51:25.141Z,101845.00
2022-12-26T22:53:57.625Z,101856.00
2022-12-26T22:56:25.549Z,101861.00
2022-12-26T22:58:57.605Z,101861.00
2022-12-26T23:01:24.985Z,101854.00
2022-12-26T23:03:52.560Z,101846.00
2022-12-26T23:06:35.274Z,101862.00
2022-12-26T23:09:06.223Z,101849.00
2022-12-26T23:11:35.773Z,101858.00
2022-12-26T23:14:05.984Z,101861.00
2022-12-26T23:16:54.400Z,101872.00
2022-12-26T23:20:17.950Z,101876.00
2022-12-26T23:22:45.536Z,101870.00
2022-12-26T23:25:12.900Z,101871.00
2022-12-26T23:27:58.617Z,101881.00
2022-12-26T23:30:31.142Z,101869.00
2022-12-26T23:32:59.624Z,101882.00
2022-12-26T23:35:27.910Z,101872.00
2022-12-26T23:37:55.308Z,101881.00
2022-12-26T23:40:23.475Z,101882.00
2022-12-26T23:42:50.653Z,101880.00
2022-12-26T23:45:17.956Z,101871.00
2022-12-26T23:47:47.179Z,101884.00
2022-12-26T23:50:16.603Z,101881.00
2022-12-26T23:52:44.802Z,101888.00
2022-12-26T23:55:12.570Z,101894.00
2022-12-26T23:57:39.844Z,101887.00
